Aviation Digital Data Service (ADDS)

Output produced by METARs form (1530 UTC 20 March 2019)
found at http://www.aviationweather.gov/metar/data/
 
METAR text: KGEG 201453Z 05003KT 10SM CLR 03/M04 A3009 RMK AO2 SLP199 T00331039 58002
Conditions at: KGEG (SPOKANE/METRO , WA, US) observed 1453 UTC 20 March 2019
Temperature: 3.3°C (38°F)
Dewpoint: -3.9°C (25°F) [RH = 59%]
Pressure (altimeter): 30.09 inches Hg (1019.0 mb)
[Sea-level pressure: 1019.9 mb]
Winds: from the NE (50 degrees) at 3 MPH (3 knots; 1.5 m/s)
Visibility: 10 or more miles (16+ km)
Ceiling: at least 12,000 feet AGL
Clouds: sky clear below 12,000 feet AGL
Weather: no significant weather observed at this time

METAR text: KGEG 201353Z 06008KT 10SM CLR 03/M04 A3010 RMK AO2 SLP198 T00281039
Conditions at: KGEG (SPOKANE/METRO , WA, US) observed 1353 UTC 20 March 2019
Temperature: 2.8°C (37°F)
Dewpoint: -3.9°C (25°F) [RH = 61%]
Pressure (altimeter): 30.10 inches Hg (1019.4 mb)
[Sea-level pressure: 1019.8 mb]
Winds: from the ENE (60 degrees) at 9 MPH (8 knots; 4.1 m/s)
Visibility: 10 or more miles (16+ km)
Ceiling: at least 12,000 feet AGL
Clouds: sky clear below 12,000 feet AGL
Weather: no significant weather observed at this time

METAR text: KGEG 201253Z 06007KT 10SM CLR 03/M04 A3010 RMK AO2 SLP199 T00331039
Conditions at: KGEG (SPOKANE/METRO , WA, US) observed 1253 UTC 20 March 2019
Temperature: 3.3°C (38°F)
Dewpoint: -3.9°C (25°F) [RH = 59%]
Pressure (altimeter): 30.10 inches Hg (1019.4 mb)
[Sea-level pressure: 1019.9 mb]
Winds: from the ENE (60 degrees) at 8 MPH (7 knots; 3.6 m/s)
Visibility: 10 or more miles (16+ km)
Ceiling: at least 12,000 feet AGL
Clouds: sky clear below 12,000 feet AGL
Weather: no significant weather observed at this time

METAR text: KGEG 201153Z 06007KT 10SM CLR 04/M04 A3010 RMK AO2 SLP197 4/006 T00391039 10083 20039 58007
Conditions at: KGEG (SPOKANE/METRO , WA, US) observed 1153 UTC 20 March 2019
Temperature: 3.9°C (39°F)
Dewpoint: -3.9°C (25°F) [RH = 57%]
Pressure (altimeter): 30.10 inches Hg (1019.4 mb)
[Sea-level pressure: 1019.7 mb]
Winds: from the ENE (60 degrees) at 8 MPH (7 knots; 3.6 m/s)
Visibility: 10 or more miles (16+ km)
Ceiling: at least 12,000 feet AGL
Clouds: sky clear below 12,000 feet AGL
Weather: no significant weather observed at this time

METAR text: KGEG 201053Z 06009KT 10SM CLR 05/M03 A3011 RMK AO2 SLP199 T00501033
Conditions at: KGEG (SPOKANE/METRO , WA, US) observed 1053 UTC 20 March 2019
Temperature: 5.0°C (41°F)
Dewpoint: -3.3°C (26°F) [RH = 55%]
Pressure (altimeter): 30.11 inches Hg (1019.7 mb)
[Sea-level pressure: 1019.9 mb]
Winds: from the ENE (60 degrees) at 10 MPH (9 knots; 4.6 m/s)
Visibility: 10 or more miles (16+ km)
Ceiling: at least 12,000 feet AGL
Clouds: sky clear below 12,000 feet AGL
Weather: no significant weather observed at this time

METAR text: KGEG 200953Z 07008KT 10SM CLR 05/M03 A3012 RMK AO2 SLP204 T00501033
Conditions at: KGEG (SPOKANE/METRO , WA, US) observed 0953 UTC 20 March 2019
Temperature: 5.0°C (41°F)
Dewpoint: -3.3°C (26°F) [RH = 55%]
Pressure (altimeter): 30.12 inches Hg (1020.1 mb)
[Sea-level pressure: 1020.4 mb]
Winds: from the ENE (70 degrees) at 9 MPH (8 knots; 4.1 m/s)
Visibility: 10 or more miles (16+ km)
Ceiling: at least 12,000 feet AGL
Clouds: sky clear below 12,000 feet AGL
Weather: no significant weather observed at this time

METAR text: KGEG 200853Z 08007KT 10SM CLR 06/M03 A3012 RMK AO2 SLP205 T00611033 51001
Conditions at: KGEG (SPOKANE/METRO , WA, US) observed 0853 UTC 20 March 2019
Temperature: 6.1°C (43°F)
Dewpoint: -3.3°C (26°F) [RH = 51%]
Pressure (altimeter): 30.12 inches Hg (1020.1 mb)
[Sea-level pressure: 1020.5 mb]
Winds: from the E (80 degrees) at 8 MPH (7 knots; 3.6 m/s)
Visibility: 10 or more miles (16+ km)
Ceiling: at least 12,000 feet AGL
Clouds: sky clear below 12,000 feet AGL
Weather: no significant weather observed at this time

METAR text: KGEG 200753Z 06006KT 10SM CLR 07/M03 A3012 RMK AO2 SLP207 T00721033 401610000
Conditions at: KGEG (SPOKANE/METRO , WA, US) observed 0753 UTC 20 March 2019
Temperature: 7.2°C (45°F)
Dewpoint: -3.3°C (26°F) [RH = 47%]
Pressure (altimeter): 30.12 inches Hg (1020.1 mb)
[Sea-level pressure: 1020.7 mb]
Winds: from the ENE (60 degrees) at 7 MPH (6 knots; 3.1 m/s)
Visibility: 10 or more miles (16+ km)
Ceiling: at least 12,000 feet AGL
Clouds: sky clear below 12,000 feet AGL
Weather: no significant weather observed at this time

METAR text: KGEG 200653Z 07009KT 10SM CLR 08/M03 A3013 RMK AO2 SLP208 T00831033
Conditions at: KGEG (SPOKANE/METRO , WA, US) observed 0653 UTC 20 March 2019
Temperature: 8.3°C (47°F)
Dewpoint: -3.3°C (26°F) [RH = 44%]
Pressure (altimeter): 30.13 inches Hg (1020.4 mb)
[Sea-level pressure: 1020.8 mb]
Winds: from the ENE (70 degrees) at 10 MPH (9 knots; 4.6 m/s)
Visibility: 10 or more miles (16+ km)
Ceiling: at least 12,000 feet AGL
Clouds: sky clear below 12,000 feet AGL
Weather: no significant weather observed at this time

METAR text: KGEG 200553Z 06006KT 10SM CLR 07/M03 A3012 RMK AO2 SLP209 6/006 T00721028 10161 20061 58002
Conditions at: KGEG (SPOKANE/METRO , WA, US) observed 0553 UTC 20 March 2019
Temperature: 7.2°C (45°F)
Dewpoint: -2.8°C (27°F) [RH = 49%]
Pressure (altimeter): 30.12 inches Hg (1020.1 mb)
[Sea-level pressure: 1020.9 mb]
Winds: from the ENE (60 degrees) at 7 MPH (6 knots; 3.1 m/s)
Visibility: 10 or more miles (16+ km)
Ceiling: at least 12,000 feet AGL
Clouds: sky clear below 12,000 feet AGL
Weather: no significant weather observed at this time

METAR text: KGEG 200453Z 00000KT 10SM CLR 07/M02 A3013 RMK AO2 SLP212 T00721022
Conditions at: KGEG (SPOKANE/METRO , WA, US) observed 0453 UTC 20 March 2019
Temperature: 7.2°C (45°F)
Dewpoint: -2.2°C (28°F) [RH = 51%]
Pressure (altimeter): 30.13 inches Hg (1020.4 mb)
[Sea-level pressure: 1021.2 mb]
Winds: calm
Visibility: 10 or more miles (16+ km)
Ceiling: at least 12,000 feet AGL
Clouds: sky clear below 12,000 feet AGL
Weather: no significant weather observed at this time

METAR text: KGEG 200353Z 00000KT 10SM CLR 10/M02 A3013 RMK AO2 SLP210 T01001022
Conditions at: KGEG (SPOKANE/METRO , WA, US) observed 0353 UTC 20 March 2019
Temperature: 10.0°C (50°F)
Dewpoint: -2.2°C (28°F) [RH = 42%]
Pressure (altimeter): 30.13 inches Hg (1020.4 mb)
[Sea-level pressure: 1021.0 mb]
Winds: calm
Visibility: 10 or more miles (16+ km)
Ceiling: at least 12,000 feet AGL
Clouds: sky clear below 12,000 feet AGL
Weather: no significant weather observed at this time

METAR text: KGEG 200253Z 00000KT 10SM CLR 11/M02 A3013 RMK AO2 SLP212 T01061017 56008
Conditions at: KGEG (SPOKANE/METRO , WA, US) observed 0253 UTC 20 March 2019
Temperature: 10.6°C (51°F)
Dewpoint: -1.7°C (29°F) [RH = 42%]
Pressure (altimeter): 30.13 inches Hg (1020.4 mb)
[Sea-level pressure: 1021.2 mb]
Winds: calm
Visibility: 10 or more miles (16+ km)
Ceiling: at least 12,000 feet AGL
Clouds: sky clear below 12,000 feet AGL
Weather: no significant weather observed at this time

METAR text: KGEG 200153Z 34003KT 10SM FEW250 13/M02 A3013 RMK AO2 SLP211 T01331017
Conditions at: KGEG (SPOKANE/METRO , WA, US) observed 0153 UTC 20 March 2019
Temperature: 13.3°C (56°F)
Dewpoint: -1.7°C (29°F) [RH = 35%]
Pressure (altimeter): 30.13 inches Hg (1020.4 mb)
[Sea-level pressure: 1021.1 mb]
Winds: from the NNW (340 degrees) at 3 MPH (3 knots; 1.5 m/s)
Visibility: 10 or more miles (16+ km)
Ceiling: at least 12,000 feet AGL
Clouds: few clouds at 25000 feet AGL
Weather: no significant weather observed at this time

METAR text: KGEG 200053Z 34003KT 10SM FEW250 14/M01 A3014 RMK AO2 SLP213 T01441011
Conditions at: KGEG (SPOKANE/METRO , WA, US) observed 0053 UTC 20 March 2019
Temperature: 14.4°C (58°F)
Dewpoint: -1.1°C (30°F) [RH = 34%]
Pressure (altimeter): 30.14 inches Hg (1020.7 mb)
[Sea-level pressure: 1021.3 mb]
Winds: from the NNW (340 degrees) at 3 MPH (3 knots; 1.5 m/s)
Visibility: 10 or more miles (16+ km)
Ceiling: at least 12,000 feet AGL
Clouds: few clouds at 25000 feet AGL
Weather: no significant weather observed at this time

METAR text: KGEG 192353Z 36005KT 10SM FEW250 16/M02 A3015 RMK AO2 SLP217 4/006 T01561017 10156 20061 56019
Conditions at: KGEG (SPOKANE/METRO , WA, US) observed 2353 UTC 19 March 2019
Temperature: 15.6°C (60°F)
Dewpoint: -1.7°C (29°F) [RH = 30%]
Pressure (altimeter): 30.15 inches Hg (1021.1 mb)
[Sea-level pressure: 1021.7 mb]
Winds: from the N (360 degrees) at 6 MPH (5 knots; 2.6 m/s)
Visibility: 10 or more miles (16+ km)
Ceiling: at least 12,000 feet AGL
Clouds: few clouds at 25000 feet AGL
Weather: no significant weather observed at this time

METAR text: KGEG 192253Z 36004KT 10SM FEW250 14/M02 A3017 RMK AO2 SLP223 T01441017
Conditions at: KGEG (SPOKANE/METRO , WA, US) observed 2253 UTC 19 March 2019
Temperature: 14.4°C (58°F)
Dewpoint: -1.7°C (29°F) [RH = 33%]
Pressure (altimeter): 30.17 inches Hg (1021.8 mb)
[Sea-level pressure: 1022.3 mb]
Winds: from the N (360 degrees) at 5 MPH (4 knots; 2.1 m/s)
Visibility: 10 or more miles (16+ km)
Ceiling: at least 12,000 feet AGL
Clouds: few clouds at 25000 feet AGL
Weather: no significant weather observed at this time

METAR text: KGEG 192153Z 02004KT 10SM FEW250 13/M02 A3019 RMK AO2 SLP229 T01331017
Conditions at: KGEG (SPOKANE/METRO , WA, US) observed 2153 UTC 19 March 2019
Temperature: 13.3°C (56°F)
Dewpoint: -1.7°C (29°F) [RH = 35%]
Pressure (altimeter): 30.19 inches Hg (1022.4 mb)
[Sea-level pressure: 1022.9 mb]
Winds: from the NNE (20 degrees) at 5 MPH (4 knots; 2.1 m/s)
Visibility: 10 or more miles (16+ km)
Ceiling: at least 12,000 feet AGL
Clouds: few clouds at 25000 feet AGL
Weather: no significant weather observed at this time

METAR text: KGEG 192053Z 03003KT 10SM FEW250 13/M03 A3021 RMK AO2 SLP237 T01281028 58015
Conditions at: KGEG (SPOKANE/METRO , WA, US) observed 2053 UTC 19 March 2019
Temperature: 12.8°C (55°F)
Dewpoint: -2.8°C (27°F) [RH = 34%]
Pressure (altimeter): 30.21 inches Hg (1023.1 mb)
[Sea-level pressure: 1023.7 mb]
Winds: from the NNE (30 degrees) at 3 MPH (3 knots; 1.5 m/s)
Visibility: 10 or more miles (16+ km)
Ceiling: at least 12,000 feet AGL
Clouds: few clouds at 25000 feet AGL
Weather: no significant weather observed at this time

METAR text: KGEG 191953Z 01004KT 10SM FEW250 10/M02 A3024 RMK AO2 SLP246 T01001022
Conditions at: KGEG (SPOKANE/METRO , WA, US) observed 1953 UTC 19 March 2019
Temperature: 10.0°C (50°F)
Dewpoint: -2.2°C (28°F) [RH = 42%]
Pressure (altimeter): 30.24 inches Hg (1024.1 mb)
[Sea-level pressure: 1024.6 mb]
Winds: from the N (10 degrees) at 5 MPH (4 knots; 2.1 m/s)
Visibility: 10 or more miles (16+ km)
Ceiling: at least 12,000 feet AGL
Clouds: few clouds at 25000 feet AGL
Weather: no significant weather observed at this time

METAR text: KGEG 191853Z 03006KT 10SM FEW250 08/M03 A3025 RMK AO2 SLP254 T00831028
Conditions at: KGEG (SPOKANE/METRO , WA, US) observed 1853 UTC 19 March 2019
Temperature: 8.3°C (47°F)
Dewpoint: -2.8°C (27°F) [RH = 45%]
Pressure (altimeter): 30.25 inches Hg (1024.5 mb)
[Sea-level pressure: 1025.4 mb]
Winds: from the NNE (30 degrees) at 7 MPH (6 knots; 3.1 m/s)
Visibility: 10 or more miles (16+ km)
Ceiling: at least 12,000 feet AGL
Clouds: few clouds at 25000 feet AGL
Weather: no significant weather observed at this time

METAR text: KGEG 191753Z 05007KT 10SM FEW250 06/M03 A3026 RMK AO2 SLP257 4/008 933026 T00611028 10061 20000 58001
Conditions at: KGEG (SPOKANE/METRO , WA, US) observed 1753 UTC 19 March 2019
Temperature: 6.1°C (43°F)
Dewpoint: -2.8°C (27°F) [RH = 53%]
Pressure (altimeter): 30.26 inches Hg (1024.8 mb)
[Sea-level pressure: 1025.7 mb]
Winds: from the NE (50 degrees) at 8 MPH (7 knots; 3.6 m/s)
Visibility: 10 or more miles (16+ km)
Ceiling: at least 12,000 feet AGL
Clouds: few clouds at 25000 feet AGL
Weather: no significant weather observed at this time

METAR text: KGEG 191653Z 04009KT 10SM FEW250 04/M03 A3027 RMK AO2 SLP261 T00441028
Conditions at: KGEG (SPOKANE/METRO , WA, US) observed 1653 UTC 19 March 2019
Temperature: 4.4°C (40°F)
Dewpoint: -2.8°C (27°F) [RH = 59%]
Pressure (altimeter): 30.27 inches Hg (1025.1 mb)
[Sea-level pressure: 1026.1 mb]
Winds: from the NE (40 degrees) at 10 MPH (9 knots; 4.6 m/s)
Visibility: 10 or more miles (16+ km)
Ceiling: at least 12,000 feet AGL
Clouds: few clouds at 25000 feet AGL
Weather: no significant weather observed at this time

METAR text: KGEG 191553Z 05007KT 10SM FEW250 03/M03 A3027 RMK AO2 SLP263 T00331033
Conditions at: KGEG (SPOKANE/METRO , WA, US) observed 1553 UTC 19 March 2019
Temperature: 3.3°C (38°F)
Dewpoint: -3.3°C (26°F) [RH = 62%]
Pressure (altimeter): 30.27 inches Hg (1025.1 mb)
[Sea-level pressure: 1026.3 mb]
Winds: from the NE (50 degrees) at 8 MPH (7 knots; 3.6 m/s)
Visibility: 10 or more miles (16+ km)
Ceiling: at least 12,000 feet AGL
Clouds: few clouds at 25000 feet AGL
Weather: no significant weather observed at this time

METAR text: KGEG 191453Z 05010KT 10SM FEW250 02/M04 A3026 RMK AO2 SLP260 T00171044 53002
Conditions at: KGEG (SPOKANE/METRO , WA, US) observed 1453 UTC 19 March 2019
Temperature: 1.7°C (35°F)
Dewpoint: -4.4°C (24°F) [RH = 64%]
Pressure (altimeter): 30.26 inches Hg (1024.8 mb)
[Sea-level pressure: 1026.0 mb]
Winds: from the NE (50 degrees) at 12 MPH (10 knots; 5.1 m/s)
Visibility: 10 or more miles (16+ km)
Ceiling: at least 12,000 feet AGL
Clouds: few clouds at 25000 feet AGL
Weather: no significant weather observed at this time

METAR text: KGEG 191353Z 05008KT 10SM FEW140 FEW250 01/M04 A3026 RMK AO2 SLP257 T00111044
Conditions at: KGEG (SPOKANE/METRO , WA, US) observed 1353 UTC 19 March 2019
Temperature: 1.1°C (34°F)
Dewpoint: -4.4°C (24°F) [RH = 67%]
Pressure (altimeter): 30.26 inches Hg (1024.8 mb)
[Sea-level pressure: 1025.7 mb]
Winds: from the NE (50 degrees) at 9 MPH (8 knots; 4.1 m/s)
Visibility: 10 or more miles (16+ km)
Ceiling: at least 12,000 feet AGL
Clouds: few clouds at 14000 feet AGL
few clouds at 25000 feet AGL
Weather: no significant weather observed at this time

METAR text: KGEG 191253Z 05005KT 10SM FEW090 01/M05 A3026 RMK AO2 SLP257 T00061050
Conditions at: KGEG (SPOKANE/METRO , WA, US) observed 1253 UTC 19 March 2019
Temperature: 0.6°C (33°F)
Dewpoint: -5.0°C (23°F) [RH = 66%]
Pressure (altimeter): 30.26 inches Hg (1024.8 mb)
[Sea-level pressure: 1025.7 mb]
Winds: from the NE (50 degrees) at 6 MPH (5 knots; 2.6 m/s)
Visibility: 10 or more miles (16+ km)
Ceiling: at least 12,000 feet AGL
Clouds: few clouds at 9000 feet AGL
Weather: no significant weather observed at this time

METAR text: KGEG 191153Z 06006KT 10SM CLR 02/M04 A3026 RMK AO2 SLP253 4/008 T00221044 10072 20011 51002
Conditions at: KGEG (SPOKANE/METRO , WA, US) observed 1153 UTC 19 March 2019
Temperature: 2.2°C (36°F)
Dewpoint: -4.4°C (24°F) [RH = 62%]
Pressure (altimeter): 30.26 inches Hg (1024.8 mb)
[Sea-level pressure: 1025.3 mb]
Winds: from the ENE (60 degrees) at 7 MPH (6 knots; 3.1 m/s)
Visibility: 10 or more miles (16+ km)
Ceiling: at least 12,000 feet AGL
Clouds: sky clear below 12,000 feet AGL
Weather: no significant weather observed at this time

METAR text: KGEG 191053Z 05007KT 10SM CLR 02/M04 A3025 RMK AO2 SLP252 T00221044
Conditions at: KGEG (SPOKANE/METRO , WA, US) observed 1053 UTC 19 March 2019
Temperature: 2.2°C (36°F)
Dewpoint: -4.4°C (24°F) [RH = 62%]
Pressure (altimeter): 30.25 inches Hg (1024.5 mb)
[Sea-level pressure: 1025.2 mb]
Winds: from the NE (50 degrees) at 8 MPH (7 knots; 3.6 m/s)
Visibility: 10 or more miles (16+ km)
Ceiling: at least 12,000 feet AGL
Clouds: sky clear below 12,000 feet AGL
Weather: no significant weather observed at this time

METAR text: KGEG 190953Z 04005KT 10SM CLR 04/M04 A3026 RMK AO2 SLP252 T00391044
Conditions at: KGEG (SPOKANE/METRO , WA, US) observed 0953 UTC 19 March 2019
Temperature: 3.9°C (39°F)
Dewpoint: -4.4°C (24°F) [RH = 55%]
Pressure (altimeter): 30.26 inches Hg (1024.8 mb)
[Sea-level pressure: 1025.2 mb]
Winds: from the NE (40 degrees) at 6 MPH (5 knots; 2.6 m/s)
Visibility: 10 or more miles (16+ km)
Ceiling: at least 12,000 feet AGL
Clouds: sky clear below 12,000 feet AGL
Weather: no significant weather observed at this time

METAR text: KGEG 190853Z 08007KT 10SM CLR 04/M04 A3025 RMK AO2 SLP251 T00441044 55001
Conditions at: KGEG (SPOKANE/METRO , WA, US) observed 0853 UTC 19 March 2019
Temperature: 4.4°C (40°F)
Dewpoint: -4.4°C (24°F) [RH = 53%]
Pressure (altimeter): 30.25 inches Hg (1024.5 mb)
[Sea-level pressure: 1025.1 mb]
Winds: from the E (80 degrees) at 8 MPH (7 knots; 3.6 m/s)
Visibility: 10 or more miles (16+ km)
Ceiling: at least 12,000 feet AGL
Clouds: sky clear below 12,000 feet AGL
Weather: no significant weather observed at this time

METAR text: KGEG 190753Z 08004KT 10SM CLR 06/M04 A3024 RMK AO2 SLP247 T00611044 401441033
Conditions at: KGEG (SPOKANE/METRO , WA, US) observed 0753 UTC 19 March 2019
Temperature: 6.1°C (43°F)
Dewpoint: -4.4°C (24°F) [RH = 47%]
Pressure (altimeter): 30.24 inches Hg (1024.1 mb)
[Sea-level pressure: 1024.7 mb]
Winds: from the E (80 degrees) at 5 MPH (4 knots; 2.1 m/s)
Visibility: 10 or more miles (16+ km)
Ceiling: at least 12,000 feet AGL
Clouds: sky clear below 12,000 feet AGL
Weather: no significant weather observed at this time

METAR text: KGEG 190653Z 08005KT 10SM CLR 06/M05 A3024 RMK AO2 SLP250 T00611050
Conditions at: KGEG (SPOKANE/METRO , WA, US) observed 0653 UTC 19 March 2019
Temperature: 6.1°C (43°F)
Dewpoint: -5.0°C (23°F) [RH = 45%]
Pressure (altimeter): 30.24 inches Hg (1024.1 mb)
[Sea-level pressure: 1025.0 mb]
Winds: from the E (80 degrees) at 6 MPH (5 knots; 2.6 m/s)
Visibility: 10 or more miles (16+ km)
Ceiling: at least 12,000 feet AGL
Clouds: sky clear below 12,000 feet AGL
Weather: no significant weather observed at this time

METAR text: KGEG 190553Z 00000KT 10SM CLR 07/M06 A3025 RMK AO2 SLP255 4/008 T00671056 10144 20033 51008
Conditions at: KGEG (SPOKANE/METRO , WA, US) observed 0553 UTC 19 March 2019
Temperature: 6.7°C (44°F)
Dewpoint: -5.6°C (22°F) [RH = 41%]
Pressure (altimeter): 30.25 inches Hg (1024.5 mb)
[Sea-level pressure: 1025.5 mb]
Winds: calm
Visibility: 10 or more miles (16+ km)
Ceiling: at least 12,000 feet AGL
Clouds: sky clear below 12,000 feet AGL
Weather: no significant weather observed at this time

METAR text: KGEG 190453Z 00000KT 10SM CLR 05/M04 A3025 RMK AO2 SLP256 T00501044
Conditions at: KGEG (SPOKANE/METRO , WA, US) observed 0453 UTC 19 March 2019
Temperature: 5.0°C (41°F)
Dewpoint: -4.4°C (24°F) [RH = 51%]
Pressure (altimeter): 30.25 inches Hg (1024.5 mb)
[Sea-level pressure: 1025.6 mb]
Winds: calm
Visibility: 10 or more miles (16+ km)
Ceiling: at least 12,000 feet AGL
Clouds: sky clear below 12,000 feet AGL
Weather: no significant weather observed at this time

METAR text: KGEG 190353Z 29003KT 10SM CLR 05/M04 A3024 RMK AO2 SLP255 T00501039
Conditions at: KGEG (SPOKANE/METRO , WA, US) observed 0353 UTC 19 March 2019
Temperature: 5.0°C (41°F)
Dewpoint: -3.9°C (25°F) [RH = 52%]
Pressure (altimeter): 30.24 inches Hg (1024.1 mb)
[Sea-level pressure: 1025.5 mb]
Winds: from the WNW (290 degrees) at 3 MPH (3 knots; 1.5 m/s)
Visibility: 10 or more miles (16+ km)
Ceiling: at least 12,000 feet AGL
Clouds: sky clear below 12,000 feet AGL
Weather: no significant weather observed at this time

Forecast for: KGEG (SPOKANE/METRO , WA, US)
Text: KGEG 201131Z 2012/2112 04005KT P6SM SKC
Forecast period: 1200 UTC 20 March 2019 to 1200 UTC 21 March 2019
Forecast type: FROM: standard forecast or significant change
Winds: from the NE (40 degrees) at 6 MPH (5 knots; 2.6 m/s)
Visibility: 6 or more miles 10+ km)
Clouds: clear skies
Weather: no significant weather forecast for this period